createdAt,value
2019-02-18T00:00:32.049Z,3.43
2019-02-18T00:02:58.361Z,3.32
2019-02-18T00:05:24.669Z,3.27
2019-02-18T00:07:50.983Z,3.07
2019-02-18T00:10:17.294Z,2.95
2019-02-18T00:12:43.615Z,2.90
2019-02-18T00:15:09.916Z,2.82
2019-02-18T00:17:36.229Z,2.79
2019-02-18T00:20:02.541Z,2.86
2019-02-18T00:22:28.857Z,2.60
2019-02-18T00:24:55.169Z,2.49
2019-02-18T00:27:21.477Z,2.36
2019-02-18T00:29:47.784Z,2.27
2019-02-18T00:32:14.121Z,2.20
2019-02-18T00:34:40.433Z,3.23
2019-02-18T00:37:06.740Z,3.28
2019-02-18T00:39:33.050Z,2.98
2019-02-18T00:41:59.361Z,2.85
2019-02-18T00:44:25.667Z,2.91
2019-02-18T00:46:51.979Z,2.83
2019-02-18T00:49:18.291Z,2.79
2019-02-18T00:51:44.606Z,2.66
2019-02-18T00:54:10.913Z,2.54
2019-02-18T00:56:37.224Z,2.56
2019-02-18T00:59:03.533Z,2.55
2019-02-18T01:01:29.847Z,2.43
2019-02-18T01:03:56.152Z,2.52
2019-02-18T01:06:22.466Z,2.76
2019-02-18T01:08:48.777Z,2.66
2019-02-18T01:11:15.084Z,2.58
2019-02-18T01:13:41.396Z,2.39
2019-02-18T01:16:07.709Z,2.37
2019-02-18T01:18:34.012Z,2.23
2019-02-18T01:21:00.319Z,2.12
2019-02-18T01:23:26.646Z,1.89
2019-02-18T01:25:52.955Z,1.89
2019-02-18T01:28:19.269Z,1.85
2019-02-18T01:30:45.573Z,1.82
2019-02-18T01:33:11.882Z,1.66
2019-02-18T01:35:38.192Z,1.65
2019-02-18T01:38:04.509Z,1.62
2019-02-18T01:40:30.821Z,1.63
2019-02-18T01:42:57.125Z,1.58
2019-02-18T01:45:23.432Z,1.38
2019-02-18T01:47:49.739Z,1.19
2019-02-18T01:50:16.049Z,1.04
2019-02-18T01:52:42.361Z,1.09
2019-02-18T01:55:08.670Z,1.08
2019-02-18T01:57:35.024Z,1.08
2019-02-18T02:00:01.318Z,1.10
2019-02-18T02:02:27.625Z,0.92
2019-02-18T02:04:53.931Z,0.87
2019-02-18T02:07:20.248Z,0.89
2019-02-18T02:09:46.553Z,0.71
2019-02-18T02:12:12.865Z,0.70
2019-02-18T02:14:39.176Z,0.89
2019-02-18T02:17:05.478Z,0.83
2019-02-18T02:19:31.784Z,0.77
2019-02-18T02:21:58.093Z,0.89
2019-02-18T02:24:24.398Z,1.04
2019-02-18T02:26:50.705Z,1.23
2019-02-18T02:29:17.015Z,1.16
2019-02-18T02:31:43.314Z,1.23
2019-02-18T02:34:09.622Z,1.31
2019-02-18T02:36:35.925Z,1.32
2019-02-18T02:39:02.254Z,1.11
2019-02-18T02:41:28.562Z,0.93
2019-02-18T02:43:54.876Z,0.95
2019-02-18T02:46:21.186Z,1.04
2019-02-18T02:48:47.492Z,1.11
2019-02-18T02:51:13.796Z,1.03
2019-02-18T02:53:40.111Z,0.90
2019-02-18T02:56:06.416Z,0.91
2019-02-18T02:58:32.730Z,0.91
2019-02-18T03:00:59.033Z,0.84
2019-02-18T03:03:25.347Z,0.76
2019-02-18T03:05:51.665Z,0.82
2019-02-18T03:08:20.617Z,0.82
2019-02-18T03:10:44.265Z,0.84
2019-02-18T03:13:10.577Z,0.83
2019-02-18T03:15:36.895Z,0.74
2019-02-18T03:18:03.205Z,0.65
2019-02-18T03:20:29.508Z,0.54
2019-02-18T03:22:55.815Z,0.45
2019-02-18T03:25:22.124Z,0.51
2019-02-18T03:27:48.428Z,0.41
2019-02-18T03:30:14.738Z,0.30
2019-02-18T03:32:41.068Z,0.19
2019-02-18T03:35:07.354Z,0.30
2019-02-18T03:37:33.671Z,0.31
2019-02-18T03:39:59.979Z,0.32
2019-02-18T03:42:26.288Z,0.29
2019-02-18T03:44:52.591Z,0.39
2019-02-18T03:47:18.902Z,0.26
2019-02-18T03:49:45.222Z,0.16
2019-02-18T03:52:11.525Z,0.10
2019-02-18T03:54:37.839Z,0.17
2019-02-18T03:57:04.141Z,0.07
2019-02-18T03:59:30.454Z,-0.01
2019-02-18T04:01:56.767Z,0.00
2019-02-18T04:04:23.073Z,0.02
2019-02-18T04:06:49.378Z,0.11
2019-02-18T04:09:15.686Z,0.10
2019-02-18T04:11:42.000Z,0.08
2019-02-18T04:14:08.307Z,0.17
2019-02-18T04:16:34.616Z,0.14
2019-02-18T04:19:00.936Z,0.24
2019-02-18T04:21:27.246Z,0.27
2019-02-18T04:23:53.553Z,0.39
2019-02-18T04:26:19.864Z,0.35
2019-02-18T04:28:46.170Z,0.43
2019-02-18T04:31:12.482Z,0.33
2019-02-18T04:33:38.783Z,0.46
2019-02-18T04:36:05.093Z,0.47
2019-02-18T04:38:31.403Z,0.44
2019-02-18T04:40:57.714Z,0.34
2019-02-18T04:43:24.030Z,0.08
2019-02-18T04:45:50.335Z,0.09
2019-02-18T04:48:16.646Z,0.00
2019-02-18T04:50:42.949Z,-0.08
2019-02-18T04:53:09.272Z,-0.17
2019-02-18T04:55:35.592Z,-0.19
2019-02-18T04:58:01.893Z,-0.14
2019-02-18T05:00:28.197Z,0.05
2019-02-18T05:02:54.539Z,0.18
2019-02-18T05:05:20.823Z,0.09
2019-02-18T05:07:47.134Z,0.07
2019-02-18T05:10:13.446Z,0.04
2019-02-18T05:12:39.747Z,0.02
2019-02-18T05:15:06.080Z,-0.06
2019-02-18T05:17:32.427Z,-0.11
2019-02-18T05:19:58.738Z,-0.12
2019-02-18T05:22:25.050Z,-0.13
2019-02-18T05:24:51.363Z,-0.15
2019-02-18T05:27:17.672Z,-0.12
2019-02-18T05:29:43.986Z,-0.08
2019-02-18T05:32:10.294Z,-0.07
2019-02-18T05:34:36.606Z,0.02
2019-02-18T05:37:02.916Z,0.08
2019-02-18T05:39:29.220Z,0.19
2019-02-18T05:41:55.538Z,0.30
2019-02-18T05:44:21.833Z,0.37
2019-02-18T05:46:48.142Z,0.52
2019-02-18T05:49:14.450Z,0.63
2019-02-18T05:51:40.757Z,0.75
2019-02-18T05:54:07.059Z,0.85
2019-02-18T05:56:33.373Z,0.87
2019-02-18T05:58:59.680Z,1.03
2019-02-18T06:01:25.987Z,1.24
2019-02-18T06:03:52.298Z,1.44
2019-02-18T06:06:18.601Z,1.91
2019-02-18T06:08:44.939Z,2.03
2019-02-18T06:11:11.253Z,2.11
2019-02-18T06:13:37.553Z,2.17
2019-02-18T06:16:03.862Z,2.50
2019-02-18T06:18:30.232Z,2.63
2019-02-18T06:20:56.594Z,2.60
2019-02-18T06:23:23.011Z,2.56
2019-02-18T06:25:49.317Z,2.61
2019-02-18T06:28:15.625Z,2.56
2019-02-18T06:30:41.923Z,2.61
2019-02-18T06:33:08.237Z,3.09
2019-02-18T06:35:34.570Z,3.30
2019-02-18T06:38:00.888Z,3.76
2019-02-18T06:40:27.192Z,4.12
2019-02-18T06:42:53.501Z,4.12
2019-02-18T06:45:19.882Z,4.23
2019-02-18T06:47:46.188Z,4.42
2019-02-18T06:50:12.493Z,4.62
2019-02-18T06:52:38.823Z,4.52
2019-02-18T06:55:05.127Z,4.84
2019-02-18T06:57:31.440Z,5.05
2019-02-18T06:59:57.749Z,4.84
2019-02-18T07:02:24.056Z,5.12
2019-02-18T07:04:50.365Z,5.12
2019-02-18T07:07:16.677Z,5.35
2019-02-18T07:09:50.817Z,5.73
2019-02-18T07:12:09.294Z,5.92
2019-02-18T07:14:35.605Z,5.96
2019-02-18T07:17:01.911Z,5.98
2019-02-18T07:19:28.229Z,5.76
2019-02-18T07:21:54.537Z,5.95
2019-02-18T07:24:20.847Z,5.72
2019-02-18T07:26:47.152Z,5.80
2019-02-18T07:29:13.488Z,5.89
2019-02-18T07:31:39.813Z,6.06
2019-02-18T07:34:06.121Z,6.24
2019-02-18T07:36:34.896Z,6.44
2019-02-18T07:38:58.740Z,6.27
2019-02-18T07:41:25.058Z,6.14
2019-02-18T07:43:51.365Z,6.75
2019-02-18T07:46:17.966Z,6.34
2019-02-18T07:48:44.274Z,6.44
2019-02-18T07:51:10.604Z,7.12
2019-02-18T07:53:36.909Z,7.21
2019-02-18T07:56:03.220Z,7.29
2019-02-18T07:58:29.527Z,7.31
2019-02-18T08:00:55.841Z,7.29
2019-02-18T08:03:22.152Z,6.96
2019-02-18T08:05:48.462Z,7.07
2019-02-18T08:08:14.780Z,7.36
2019-02-18T08:10:41.087Z,7.65
2019-02-18T08:13:07.419Z,7.69
2019-02-18T08:15:33.729Z,8.12
2019-02-18T08:18:00.036Z,8.16
2019-02-18T08:20:26.344Z,8.33
2019-02-18T08:22:52.652Z,8.83
2019-02-18T08:25:18.959Z,9.20
2019-02-18T08:27:45.271Z,9.37
2019-02-18T08:30:11.593Z,9.93
2019-02-18T08:32:37.886Z,9.88
2019-02-18T08:35:04.193Z,10.03
2019-02-18T08:37:30.509Z,9.52
2019-02-18T08:39:56.812Z,9.90
2019-02-18T08:42:23.124Z,10.03
2019-02-18T08:44:49.446Z,10.22
2019-02-18T08:47:15.768Z,9.94
2019-02-18T08:49:42.084Z,10.01
2019-02-18T08:52:08.389Z,10.14
2019-02-18T08:54:34.709Z,10.35
2019-02-18T08:57:01.008Z,10.22
2019-02-18T08:59:27.325Z,10.50
2019-02-18T09:01:53.643Z,10.82
2019-02-18T09:04:19.959Z,10.75
2019-02-18T09:06:46.270Z,10.72
2019-02-18T09:09:12.608Z,10.75
2019-02-18T09:11:38.927Z,11.06
2019-02-18T09:14:05.236Z,10.95
2019-02-18T09:16:31.545Z,11.24
2019-02-18T09:18:57.853Z,11.81
2019-02-18T09:21:24.223Z,12.00
2019-02-18T09:23:50.536Z,12.12
2019-02-18T09:26:16.857Z,12.27
2019-02-18T09:28:43.164Z,12.34
2019-02-18T09:31:09.476Z,12.71
2019-02-18T09:33:35.791Z,12.89
2019-02-18T09:36:02.178Z,12.73
2019-02-18T09:38:28.501Z,12.96
2019-02-18T09:40:54.843Z,12.62
2019-02-18T09:43:21.148Z,12.47
2019-02-18T09:45:47.469Z,12.14
2019-02-18T09:48:13.788Z,12.57
2019-02-18T09:50:40.096Z,13.08
2019-02-18T09:53:06.423Z,13.44
2019-02-18T09:55:32.725Z,13.58
2019-02-18T09:57:59.038Z,14.06
2019-02-18T10:00:25.349Z,13.79
2019-02-18T10:02:51.660Z,13.44
2019-02-18T10:05:17.972Z,13.84
2019-02-18T10:07:44.282Z,13.79
2019-02-18T10:10:10.590Z,13.63
2019-02-18T10:12:36.913Z,13.81
2019-02-18T10:15:03.236Z,14.05
2019-02-18T10:17:29.552Z,13.40
2019-02-18T10:19:55.915Z,13.56
2019-02-18T10:22:22.230Z,14.25
2019-02-18T10:24:50.961Z,14.43
2019-02-18T10:27:14.856Z,14.39
2019-02-18T10:29:41.163Z,14.28
2019-02-18T10:32:07.469Z,14.52
2019-02-18T10:34:33.782Z,14.71
2019-02-18T10:37:00.104Z,14.75
2019-02-18T10:39:26.413Z,14.85
2019-02-18T10:41:52.728Z,14.84
2019-02-18T10:44:19.073Z,15.11
2019-02-18T10:46:45.384Z,15.36
2019-02-18T10:49:19.375Z,15.66
2019-02-18T10:51:38.031Z,15.94
2019-02-18T10:54:04.342Z,16.08
2019-02-18T10:56:30.638Z,16.16
2019-02-18T10:58:56.954Z,16.22
2019-02-18T11:01:23.267Z,15.90
2019-02-18T11:03:49.573Z,16.24
2019-02-18T11:06:15.886Z,16.22
2019-02-18T11:08:42.193Z,16.69
2019-02-18T11:11:16.658Z,16.83
2019-02-18T11:13:34.813Z,16.20
2019-02-18T11:16:01.138Z,16.19
2019-02-18T11:18:27.450Z,16.82
2019-02-18T11:20:53.756Z,17.02
2019-02-18T11:23:20.072Z,17.07
2019-02-18T11:25:46.377Z,17.52
2019-02-18T11:28:12.685Z,17.60
2019-02-18T11:30:39.296Z,17.11
2019-02-18T11:33:05.348Z,17.64
2019-02-18T11:35:31.653Z,17.98
2019-02-18T11:37:57.965Z,18.58
2019-02-18T11:40:24.274Z,18.36
2019-02-18T11:42:50.603Z,18.14
2019-02-18T11:45:16.911Z,17.95
2019-02-18T11:47:43.221Z,17.69
2019-02-18T11:50:09.535Z,17.63
2019-02-18T11:52:35.841Z,17.85
2019-02-18T11:55:02.154Z,18.11
2019-02-18T11:57:28.466Z,17.70
2019-02-18T11:59:54.781Z,17.82
2019-02-18T12:02:21.163Z,18.21
2019-02-18T12:04:47.472Z,18.36
2019-02-18T12:07:13.781Z,18.10
2019-02-18T12:09:40.089Z,17.89
2019-02-18T12:12:06.405Z,18.15
2019-02-18T12:14:32.722Z,18.83
2019-02-18T12:16:59.033Z,19.35
2019-02-18T12:19:25.362Z,19.16
2019-02-18T12:21:51.675Z,19.53
2019-02-18T12:24:17.973Z,19.18
2019-02-18T12:26:44.284Z,18.70
2019-02-18T12:29:10.592Z,18.87
2019-02-18T12:31:36.903Z,18.54
2019-02-18T12:34:03.214Z,18.52
2019-02-18T12:36:29.521Z,18.31
2019-02-18T12:38:55.837Z,18.61
2019-02-18T12:41:22.187Z,18.65
2019-02-18T12:43:48.461Z,18.80
2019-02-18T12:46:16.094Z,18.96
2019-02-18T12:48:41.077Z,19.04
2019-02-18T12:51:07.400Z,19.32
2019-02-18T12:53:33.702Z,19.58
2019-02-18T12:56:00.008Z,19.67
2019-02-18T12:58:26.321Z,19.58
2019-02-18T13:00:52.660Z,19.82
2019-02-18T13:03:18.979Z,19.90
2019-02-18T13:05:45.267Z,20.01
2019-02-18T13:08:11.577Z,19.98
2019-02-18T13:10:37.886Z,19.88
2019-02-18T13:13:04.192Z,19.62
2019-02-18T13:15:30.495Z,19.62
2019-02-18T13:17:56.804Z,19.61
2019-02-18T13:20:23.113Z,19.39
2019-02-18T13:22:49.425Z,19.35
2019-02-18T13:25:15.735Z,19.43
2019-02-18T13:27:42.039Z,19.61
2019-02-18T13:30:08.349Z,19.57
2019-02-18T13:32:34.660Z,19.26
2019-02-18T13:35:00.984Z,19.33
2019-02-18T13:37:27.299Z,19.46
2019-02-18T13:39:53.621Z,19.10
2019-02-18T13:42:19.932Z,19.02
2019-02-18T13:44:46.240Z,18.42
2019-02-18T13:47:12.557Z,18.12
2019-02-18T13:49:38.862Z,17.83
2019-02-18T13:52:05.178Z,17.76
2019-02-18T13:54:31.483Z,17.63
2019-02-18T13:56:57.793Z,17.32
2019-02-18T13:59:24.105Z,17.06
2019-02-18T14:01:50.430Z,16.98
2019-02-18T14:04:16.730Z,16.81
2019-02-18T14:06:43.035Z,16.70
2019-02-18T14:09:09.363Z,16.65
2019-02-18T14:11:35.669Z,16.59
2019-02-18T14:14:02.588Z,16.53
2019-02-18T14:16:29.245Z,16.41
2019-02-18T14:18:55.749Z,16.41
2019-02-18T14:21:22.029Z,16.39
2019-02-18T14:23:48.347Z,16.39
2019-02-18T14:26:14.652Z,16.42
2019-02-18T14:28:40.965Z,16.31
2019-02-18T14:31:07.285Z,16.21
2019-02-18T14:33:33.613Z,16.18
2019-02-18T14:35:59.921Z,16.09
2019-02-18T14:38:26.233Z,15.99
2019-02-18T14:40:52.538Z,16.00
2019-02-18T14:43:18.865Z,15.81
2019-02-18T14:45:45.186Z,15.77
2019-02-18T14:48:11.504Z,15.77
2019-02-18T14:50:37.874Z,15.71
2019-02-18T14:53:04.185Z,15.57
2019-02-18T14:55:30.508Z,15.64
2019-02-18T14:57:56.817Z,15.62
2019-02-18T15:00:23.139Z,15.54
2019-02-18T15:02:49.450Z,15.43
2019-02-18T15:05:15.765Z,15.33
2019-02-18T15:07:42.080Z,15.19
2019-02-18T15:10:08.390Z,15.00
2019-02-18T15:12:34.701Z,14.94
2019-02-18T15:15:01.089Z,14.93
2019-02-18T15:17:27.402Z,14.86
2019-02-18T15:19:53.714Z,14.81
2019-02-18T15:22:20.030Z,14.77
2019-02-18T15:24:46.336Z,14.73
2019-02-18T15:27:12.660Z,14.67
2019-02-18T15:29:38.975Z,14.68
2019-02-18T15:32:05.288Z,14.60
2019-02-18T15:34:31.600Z,14.55
2019-02-18T15:36:57.917Z,14.51
2019-02-18T15:39:24.233Z,14.47
2019-02-18T15:41:50.541Z,14.37
2019-02-18T15:44:16.860Z,14.26
2019-02-18T15:46:43.168Z,14.06
2019-02-18T15:49:09.477Z,13.97
2019-02-18T15:51:35.784Z,13.86
2019-02-18T15:54:02.095Z,13.77
2019-02-18T15:56:28.407Z,13.72
2019-02-18T15:58:54.713Z,13.56
2019-02-18T16:01:21.036Z,13.39
2019-02-18T16:03:47.347Z,13.37
2019-02-18T16:06:13.666Z,13.33
2019-02-18T16:08:39.974Z,13.20
2019-02-18T16:11:06.283Z,13.10
2019-02-18T16:13:32.595Z,13.05
2019-02-18T16:15:58.914Z,13.04
2019-02-18T16:18:25.230Z,12.96
2019-02-18T16:20:51.549Z,12.88
2019-02-18T16:23:17.855Z,12.80
2019-02-18T16:25:44.173Z,12.74
2019-02-18T16:28:10.515Z,12.76
2019-02-18T16:30:36.805Z,12.68
2019-02-18T16:33:03.128Z,12.64
2019-02-18T16:35:29.431Z,12.65
2019-02-18T16:37:55.740Z,12.54
2019-02-18T16:40:22.047Z,12.55
2019-02-18T16:42:48.355Z,12.53
2019-02-18T16:45:14.661Z,12.38
2019-02-18T16:47:40.973Z,12.22
2019-02-18T16:50:07.283Z,12.10
2019-02-18T16:52:33.589Z,12.04
2019-02-18T16:54:59.910Z,11.93
2019-02-18T16:57:26.213Z,11.81
2019-02-18T16:59:52.677Z,11.71
2019-02-18T17:02:18.984Z,11.61
2019-02-18T17:04:45.301Z,11.58
2019-02-18T17:07:11.611Z,11.47
2019-02-18T17:09:37.920Z,11.33
2019-02-18T17:12:04.229Z,11.24
2019-02-18T17:14:30.537Z,11.15
2019-02-18T17:16:56.850Z,11.10
2019-02-18T17:19:23.157Z,10.98
2019-02-18T17:21:49.497Z,10.86
2019-02-18T17:24:15.840Z,10.82
2019-02-18T17:26:42.111Z,10.67
2019-02-18T17:29:08.424Z,10.53
2019-02-18T17:31:34.730Z,10.45
2019-02-18T17:34:01.047Z,10.33
2019-02-18T17:36:27.352Z,10.15
2019-02-18T17:38:53.661Z,10.08
2019-02-18T17:41:19.971Z,10.11
2019-02-18T17:43:46.309Z,10.13
2019-02-18T17:46:12.617Z,10.10
2019-02-18T17:48:38.987Z,10.14
2019-02-18T17:51:05.333Z,10.08
2019-02-18T17:53:31.638Z,9.96
2019-02-18T17:55:57.946Z,9.98
2019-02-18T17:58:24.264Z,9.87
2019-02-18T18:00:50.569Z,9.72
2019-02-18T18:03:16.875Z,9.31
2019-02-18T18:05:44.613Z,9.10
2019-02-18T18:08:09.509Z,8.89
2019-02-18T18:10:35.816Z,8.69
2019-02-18T18:13:02.123Z,8.55
2019-02-18T18:15:28.434Z,8.49
2019-02-18T18:17:54.734Z,8.41
2019-02-18T18:20:21.043Z,8.39
2019-02-18T18:22:47.352Z,8.39
2019-02-18T18:25:13.664Z,8.37
2019-02-18T18:27:39.996Z,8.24
2019-02-18T18:30:06.307Z,8.27
2019-02-18T18:32:32.611Z,8.44
2019-02-18T18:34:58.919Z,8.50
2019-02-18T18:37:25.235Z,8.49
2019-02-18T18:39:51.556Z,8.44
2019-02-18T18:42:17.858Z,8.43
2019-02-18T18:44:44.174Z,8.49
2019-02-18T18:47:10.475Z,8.38
2019-02-18T18:49:36.874Z,8.21
2019-02-18T18:52:03.176Z,8.14
2019-02-18T18:54:29.480Z,8.01
2019-02-18T18:56:55.791Z,7.92
2019-02-18T18:59:22.102Z,7.87
2019-02-18T19:01:48.407Z,7.85
2019-02-18T19:04:14.710Z,7.68
2019-02-18T19:06:41.022Z,7.57
2019-02-18T19:09:07.329Z,7.47
2019-02-18T19:11:33.660Z,7.44
2019-02-18T19:13:59.972Z,7.42
2019-02-18T19:16:26.276Z,7.36
2019-02-18T19:18:52.584Z,7.37
2019-02-18T19:21:18.903Z,7.30
2019-02-18T19:23:45.235Z,7.35
2019-02-18T19:26:11.544Z,7.42
2019-02-18T19:28:37.853Z,7.43
2019-02-18T19:31:04.169Z,7.48
2019-02-18T19:33:30.475Z,7.53
2019-02-18T19:35:56.785Z,7.47
2019-02-18T19:38:23.103Z,7.42
2019-02-18T19:40:49.397Z,7.24
2019-02-18T19:43:15.702Z,7.12
2019-02-18T19:45:42.328Z,7.21
2019-02-18T19:48:08.634Z,7.29
2019-02-18T19:50:37.937Z,7.32
2019-02-18T19:53:04.243Z,7.39
2019-02-18T19:55:30.547Z,7.52
2019-02-18T19:57:56.856Z,7.50
2019-02-18T20:00:23.167Z,7.43
2019-02-18T20:02:49.474Z,7.42
2019-02-18T20:05:15.780Z,7.36
2019-02-18T20:07:44.049Z,7.35
2019-02-18T20:10:08.400Z,7.18
2019-02-18T20:12:34.743Z,7.07
2019-02-18T20:15:01.057Z,7.02
2019-02-18T20:17:27.368Z,6.96
2019-02-18T20:19:54.040Z,7.03
2019-02-18T20:22:20.396Z,7.09
2019-02-18T20:24:46.703Z,7.08
2019-02-18T20:27:13.011Z,6.98
2019-02-18T20:29:39.316Z,6.90
2019-02-18T20:32:05.618Z,6.87
2019-02-18T20:34:31.934Z,6.95
2019-02-18T20:36:58.239Z,6.97
2019-02-18T20:39:24.545Z,7.03
2019-02-18T20:41:51.551Z,7.00
2019-02-18T20:44:17.184Z,6.88
2019-02-18T20:46:43.482Z,6.91
2019-02-18T20:49:09.826Z,6.82
2019-02-18T20:51:36.128Z,6.60
2019-02-18T20:54:02.431Z,6.45
2019-02-18T20:56:28.737Z,6.48
2019-02-18T20:58:55.045Z,6.37
2019-02-18T21:01:21.352Z,6.23
2019-02-18T21:03:47.662Z,6.15
2019-02-18T21:06:13.978Z,6.11
2019-02-18T21:08:40.279Z,6.06
2019-02-18T21:11:06.583Z,5.99
2019-02-18T21:13:32.897Z,5.94
2019-02-18T21:15:59.204Z,5.89
2019-02-18T21:18:25.516Z,5.77
2019-02-18T21:20:51.840Z,5.70
2019-02-18T21:23:18.141Z,5.69
2019-02-18T21:25:44.438Z,5.77
2019-02-18T21:28:10.739Z,5.70
2019-02-18T21:30:37.052Z,5.68
2019-02-18T21:33:03.358Z,5.57
2019-02-18T21:35:29.665Z,5.61
2019-02-18T21:37:55.975Z,5.66
2019-02-18T21:40:22.282Z,5.64
2019-02-18T21:42:48.582Z,5.57
2019-02-18T21:45:14.921Z,5.60
2019-02-18T21:47:41.227Z,5.63
2019-02-18T21:50:07.541Z,5.45
2019-02-18T21:52:33.866Z,5.39
2019-02-18T21:55:00.326Z,5.39
2019-02-18T21:57:26.500Z,5.40
2019-02-18T21:59:52.821Z,5.29
2019-02-18T22:02:19.126Z,5.37
2019-02-18T22:04:45.431Z,5.45
2019-02-18T22:07:11.740Z,5.58
2019-02-18T22:09:38.062Z,5.50
2019-02-18T22:12:04.363Z,5.47
2019-02-18T22:14:33.629Z,5.45
2019-02-18T22:16:56.996Z,5.42
2019-02-18T22:19:23.308Z,5.32
2019-02-18T22:21:49.653Z,5.21
2019-02-18T22:24:15.958Z,5.16
2019-02-18T22:26:42.263Z,5.13
2019-02-18T22:29:08.647Z,5.00
2019-02-18T22:31:34.967Z,4.92
2019-02-18T22:34:01.287Z,4.81
2019-02-18T22:36:27.596Z,4.73
2019-02-18T22:38:53.908Z,4.71
2019-02-18T22:41:20.219Z,4.72
2019-02-18T22:43:46.608Z,4.67
2019-02-18T22:46:12.919Z,4.77
2019-02-18T22:48:39.231Z,4.84
2019-02-18T22:51:05.540Z,4.68
2019-02-18T22:53:31.848Z,4.61
2019-02-18T22:55:58.157Z,4.60
2019-02-18T22:58:24.525Z,4.56
2019-02-18T23:00:50.830Z,4.50
2019-02-18T23:03:17.139Z,4.50
2019-02-18T23:05:43.456Z,4.49
2019-02-18T23:08:09.785Z,4.49
2019-02-18T23:10:36.095Z,4.65
2019-02-18T23:13:02.397Z,4.61
2019-02-18T23:15:28.708Z,4.58
2019-02-18T23:17:55.013Z,4.55
2019-02-18T23:20:21.327Z,4.63
2019-02-18T23:22:47.637Z,4.65
2019-02-18T23:25:13.947Z,4.58
2019-02-18T23:27:40.259Z,4.59
2019-02-18T23:30:06.576Z,4.55
2019-02-18T23:32:32.883Z,4.57
2019-02-18T23:34:59.191Z,4.47
2019-02-18T23:37:25.500Z,4.48
2019-02-18T23:39:51.807Z,4.39
2019-02-18T23:42:18.111Z,4.29
2019-02-18T23:44:44.419Z,4.18
2019-02-18T23:47:10.726Z,4.30
2019-02-18T23:49:37.034Z,4.30
2019-02-18T23:52:03.342Z,4.33
2019-02-18T23:54:29.653Z,4.20
2019-02-18T23:56:55.968Z,4.17
2019-02-18T23:59:22.282Z,4.00
